sensor_id;sensor_type;location;lat;lon;timestamp;temperature;humidity
22114;DHT22;11223;49.968;9.062;2022-08-27T00:00:23;20.40;99.90
22114;DHT22;11223;49.968;9.062;2022-08-27T00:02:50;20.40;99.90
22114;DHT22;11223;49.968;9.062;2022-08-27T00:05:18;20.40;99.90
22114;DHT22;11223;49.968;9.062;2022-08-27T00:07:44;20.40;99.90
22114;DHT22;11223;49.968;9.062;2022-08-27T00:10:19;20.40;99.90
22114;DHT22;11223;49.968;9.062;2022-08-27T00:12:45;20.40;99.90
22114;DHT22;11223;49.968;9.062;2022-08-27T00:15:11;20.30;99.90
22114;DHT22;11223;49.968;9.062;2022-08-27T00:17:37;20.40;99.90
22114;DHT22;11223;49.968;9.062;2022-08-27T00:20:04;20.40;99.90
22114;DHT22;11223;49.968;9.062;2022-08-27T00:22:30;20.40;99.90
22114;DHT22;11223;49.968;9.062;2022-08-27T00:24:56;20.40;99.90
22114;DHT22;11223;49.968;9.062;2022-08-27T00:27:21;20.40;99.90
22114;DHT22;11223;49.968;9.062;2022-08-27T00:29:47;20.40;99.90
22114;DHT22;11223;49.968;9.062;2022-08-27T00:32:13;20.40;99.90
22114;DHT22;11223;49.968;9.062;2022-08-27T00:34:39;20.40;99.90
22114;DHT22;11223;49.968;9.062;2022-08-27T00:37:05;20.40;99.90
22114;DHT22;11223;49.968;9.062;2022-08-27T00:39:31;20.40;99.90
22114;DHT22;11223;49.968;9.062;2022-08-27T00:41:57;20.40;99.90
22114;DHT22;11223;49.968;9.062;2022-08-27T00:44:25;20.40;99.90
22114;DHT22;11223;49.968;9.062;2022-08-27T00:46:54;20.40;99.90
22114;DHT22;11223;49.968;9.062;2022-08-27T00:49:38;20.40;99.90
22114;DHT22;11223;49.968;9.062;2022-08-27T00:52:25;20.50;99.90
22114;DHT22;11223;49.968;9.062;2022-08-27T00:54:56;20.40;99.90
22114;DHT22;11223;49.968;9.062;2022-08-27T00:57:23;20.40;99.90
22114;DHT22;11223;49.968;9.062;2022-08-27T00:59:49;20.40;99.90
22114;DHT22;11223;49.968;9.062;2022-08-27T01:02:15;20.40;99.90
22114;DHT22;11223;49.968;9.062;2022-08-27T01:04:47;20.40;99.90
22114;DHT22;11223;49.968;9.062;2022-08-27T01:07:14;20.40;99.90
22114;DHT22;11223;49.968;9.062;2022-08-27T01:09:41;20.30;99.90
22114;DHT22;11223;49.968;9.062;2022-08-27T01:12:07;20.30;99.90
22114;DHT22;11223;49.968;9.062;2022-08-27T01:14:34;20.30;99.90
22114;DHT22;11223;49.968;9.062;2022-08-27T01:17:01;20.30;99.90
22114;DHT22;11223;49.968;9.062;2022-08-27T01:19:54;20.30;99.90
22114;DHT22;11223;49.968;9.062;2022-08-27T01:25:15;20.30;99.90
22114;DHT22;11223;49.968;9.062;2022-08-27T01:27:43;20.20;99.90
22114;DHT22;11223;49.968;9.062;2022-08-27T01:30:12;20.20;99.90
22114;DHT22;11223;49.968;9.062;2022-08-27T01:32:38;20.20;99.90
22114;DHT22;11223;49.968;9.062;2022-08-27T01:35:07;20.20;99.90
22114;DHT22;11223;49.968;9.062;2022-08-27T01:37:33;20.20;99.90
22114;DHT22;11223;49.968;9.062;2022-08-27T01:40:00;20.20;99.90
22114;DHT22;11223;49.968;9.062;2022-08-27T01:42:36;20.20;99.90
22114;DHT22;11223;49.968;9.062;2022-08-27T01:45:11;20.20;99.90
22114;DHT22;11223;49.968;9.062;2022-08-27T01:47:38;20.20;99.90
22114;DHT22;11223;49.968;9.062;2022-08-27T01:50:15;20.20;99.90
22114;DHT22;11223;49.968;9.062;2022-08-27T01:52:42;20.20;99.90
22114;DHT22;11223;49.968;9.062;2022-08-27T01:55:09;20.30;99.90
22114;DHT22;11223;49.968;9.062;2022-08-27T01:57:36;20.30;99.90
22114;DHT22;11223;49.968;9.062;2022-08-27T02:00:06;20.20;99.90
22114;DHT22;11223;49.968;9.062;2022-08-27T02:02:32;20.20;99.90
22114;DHT22;11223;49.968;9.062;2022-08-27T02:04:58;20.30;99.90
22114;DHT22;11223;49.968;9.062;2022-08-27T02:07:23;20.20;99.90
22114;DHT22;11223;49.968;9.062;2022-08-27T02:09:49;20.20;99.90
22114;DHT22;11223;49.968;9.062;2022-08-27T02:12:15;20.20;99.90
22114;DHT22;11223;49.968;9.062;2022-08-27T02:14:41;20.20;99.90
22114;DHT22;11223;49.968;9.062;2022-08-27T02:17:06;20.20;99.90
22114;DHT22;11223;49.968;9.062;2022-08-27T02:19:32;20.20;99.90
22114;DHT22;11223;49.968;9.062;2022-08-27T02:21:57;20.20;99.90
22114;DHT22;11223;49.968;9.062;2022-08-27T02:24:25;20.20;99.90
22114;DHT22;11223;49.968;9.062;2022-08-27T02:26:52;20.20;99.90
22114;DHT22;11223;49.968;9.062;2022-08-27T02:29:20;20.20;99.90
22114;DHT22;11223;49.968;9.062;2022-08-27T02:31:45;20.20;99.90
22114;DHT22;11223;49.968;9.062;2022-08-27T02:34:11;20.20;99.90
22114;DHT22;11223;49.968;9.062;2022-08-27T02:36:36;20.20;99.90
22114;DHT22;11223;49.968;9.062;2022-08-27T02:39:04;20.20;99.90
22114;DHT22;11223;49.968;9.062;2022-08-27T02:41:30;20.20;99.90
22114;DHT22;11223;49.968;9.062;2022-08-27T02:43:55;20.20;99.90
22114;DHT22;11223;49.968;9.062;2022-08-27T02:46:21;20.20;99.90
22114;DHT22;11223;49.968;9.062;2022-08-27T02:48:47;20.20;99.90
22114;DHT22;11223;49.968;9.062;2022-08-27T02:51:12;20.20;99.90
22114;DHT22;11223;49.968;9.062;2022-08-27T02:53:38;20.20;99.90
22114;DHT22;11223;49.968;9.062;2022-08-27T02:56:05;20.20;99.90
22114;DHT22;11223;49.968;9.062;2022-08-27T02:58:31;20.20;99.90
22114;DHT22;11223;49.968;9.062;2022-08-27T03:00:58;20.20;99.90
22114;DHT22;11223;49.968;9.062;2022-08-27T03:03:25;20.20;99.90
22114;DHT22;11223;49.968;9.062;2022-08-27T03:05:51;20.30;99.90
22114;DHT22;11223;49.968;9.062;2022-08-27T03:08:17;20.20;99.90
22114;DHT22;11223;49.968;9.062;2022-08-27T03:10:42;20.30;99.90
22114;DHT22;11223;49.968;9.062;2022-08-27T03:13:08;20.30;99.90
22114;DHT22;11223;49.968;9.062;2022-08-27T03:15:33;20.20;99.90
22114;DHT22;11223;49.968;9.062;2022-08-27T03:17:59;20.20;99.90
22114;DHT22;11223;49.968;9.062;2022-08-27T03:20:45;20.20;99.90
22114;DHT22;11223;49.968;9.062;2022-08-27T03:23:12;20.20;99.90
22114;DHT22;11223;49.968;9.062;2022-08-27T03:25:41;20.20;99.90
22114;DHT22;11223;49.968;9.062;2022-08-27T03:28:07;20.10;99.90
22114;DHT22;11223;49.968;9.062;2022-08-27T03:30:33;20.10;99.90
22114;DHT22;11223;49.968;9.062;2022-08-27T03:32:58;20.10;99.90
22114;DHT22;11223;49.968;9.062;2022-08-27T03:35:24;20.00;99.90
22114;DHT22;11223;49.968;9.062;2022-08-27T03:37:49;20.00;99.90
22114;DHT22;11223;49.968;9.062;2022-08-27T03:40:16;20.00;99.90
22114;DHT22;11223;49.968;9.062;2022-08-27T03:42:42;19.90;99.90
22114;DHT22;11223;49.968;9.062;2022-08-27T03:45:08;19.90;99.90
22114;DHT22;11223;49.968;9.062;2022-08-27T03:47:35;19.90;99.90
22114;DHT22;11223;49.968;9.062;2022-08-27T03:50:01;20.00;99.90
22114;DHT22;11223;49.968;9.062;2022-08-27T03:52:27;20.00;99.90
22114;DHT22;11223;49.968;9.062;2022-08-27T03:54:53;20.00;99.90
22114;DHT22;11223;49.968;9.062;2022-08-27T03:57:19;20.00;99.90
22114;DHT22;11223;49.968;9.062;2022-08-27T03:59:44;20.00;99.90
22114;DHT22;11223;49.968;9.062;2022-08-27T04:02:10;20.00;99.90
22114;DHT22;11223;49.968;9.062;2022-08-27T04:04:36;20.00;99.90
22114;DHT22;11223;49.968;9.062;2022-08-27T04:07:02;20.00;99.90
22114;DHT22;11223;49.968;9.062;2022-08-27T04:09:28;20.00;99.90
22114;DHT22;11223;49.968;9.062;2022-08-27T04:11:53;20.00;99.90
22114;DHT22;11223;49.968;9.062;2022-08-27T04:14:19;20.00;99.90
22114;DHT22;11223;49.968;9.062;2022-08-27T04:16:45;20.00;99.90
22114;DHT22;11223;49.968;9.062;2022-08-27T04:19:12;20.00;99.90
22114;DHT22;11223;49.968;9.062;2022-08-27T04:21:37;20.00;99.90
22114;DHT22;11223;49.968;9.062;2022-08-27T04:24:03;20.00;99.90
22114;DHT22;11223;49.968;9.062;2022-08-27T04:26:29;20.00;99.90
22114;DHT22;11223;49.968;9.062;2022-08-27T04:28:56;20.10;99.90
22114;DHT22;11223;49.968;9.062;2022-08-27T04:31:22;20.00;99.90
22114;DHT22;11223;49.968;9.062;2022-08-27T04:33:48;20.00;99.90
22114;DHT22;11223;49.968;9.062;2022-08-27T04:36:14;20.00;99.90
22114;DHT22;11223;49.968;9.062;2022-08-27T04:38:39;20.00;99.90
22114;DHT22;11223;49.968;9.062;2022-08-27T04:41:08;20.00;99.90
22114;DHT22;11223;49.968;9.062;2022-08-27T04:43:56;20.00;99.90
22114;DHT22;11223;49.968;9.062;2022-08-27T04:46:28;20.00;99.90
22114;DHT22;11223;49.968;9.062;2022-08-27T04:49:00;20.00;99.90
22114;DHT22;11223;49.968;9.062;2022-08-27T04:51:26;20.00;99.90
22114;DHT22;11223;49.968;9.062;2022-08-27T04:53:52;20.00;99.90
22114;DHT22;11223;49.968;9.062;2022-08-27T04:56:19;20.00;99.90
22114;DHT22;11223;49.968;9.062;2022-08-27T04:58:47;20.00;99.90
22114;DHT22;11223;49.968;9.062;2022-08-27T05:01:20;20.00;99.90
22114;DHT22;11223;49.968;9.062;2022-08-27T05:03:46;20.00;99.90
22114;DHT22;11223;49.968;9.062;2022-08-27T05:06:12;20.00;99.90
22114;DHT22;11223;49.968;9.062;2022-08-27T05:08:38;20.00;99.90
22114;DHT22;11223;49.968;9.062;2022-08-27T05:11:07;20.10;99.90
22114;DHT22;11223;49.968;9.062;2022-08-27T05:13:33;20.00;99.90
22114;DHT22;11223;49.968;9.062;2022-08-27T05:16:03;20.10;99.90
22114;DHT22;11223;49.968;9.062;2022-08-27T05:18:29;20.10;99.90
22114;DHT22;11223;49.968;9.062;2022-08-27T05:20:55;20.10;99.90
22114;DHT22;11223;49.968;9.062;2022-08-27T05:23:22;20.10;99.90
22114;DHT22;11223;49.968;9.062;2022-08-27T05:25:49;20.10;99.90
22114;DHT22;11223;49.968;9.062;2022-08-27T05:28:16;20.10;99.90
22114;DHT22;11223;49.968;9.062;2022-08-27T05:30:44;20.10;99.90
22114;DHT22;11223;49.968;9.062;2022-08-27T05:33:12;20.10;99.90
22114;DHT22;11223;49.968;9.062;2022-08-27T05:35:57;20.20;99.90
22114;DHT22;11223;49.968;9.062;2022-08-27T05:38:25;20.20;99.90
22114;DHT22;11223;49.968;9.062;2022-08-27T05:41:09;20.20;99.90
22114;DHT22;11223;49.968;9.062;2022-08-27T05:43:36;20.20;99.90
22114;DHT22;11223;49.968;9.062;2022-08-27T05:46:04;20.20;99.90
22114;DHT22;11223;49.968;9.062;2022-08-27T05:48:31;20.20;99.90
22114;DHT22;11223;49.968;9.062;2022-08-27T05:50:57;20.30;99.90
22114;DHT22;11223;49.968;9.062;2022-08-27T05:53:23;20.30;99.90
22114;DHT22;11223;49.968;9.062;2022-08-27T05:55:48;20.30;99.90
22114;DHT22;11223;49.968;9.062;2022-08-27T05:58:14;20.40;99.90
22114;DHT22;11223;49.968;9.062;2022-08-27T06:01:00;20.40;99.90
22114;DHT22;11223;49.968;9.062;2022-08-27T06:03:29;20.40;99.90
22114;DHT22;11223;49.968;9.062;2022-08-27T06:06:03;20.50;99.90
22114;DHT22;11223;49.968;9.062;2022-08-27T06:08:29;20.50;99.90
22114;DHT22;11223;49.968;9.062;2022-08-27T06:10:55;20.50;99.90
22114;DHT22;11223;49.968;9.062;2022-08-27T06:13:21;20.60;99.90
22114;DHT22;11223;49.968;9.062;2022-08-27T06:15:47;20.60;99.90
22114;DHT22;11223;49.968;9.062;2022-08-27T06:18:13;20.60;99.90
22114;DHT22;11223;49.968;9.062;2022-08-27T06:20:39;20.60;99.90
22114;DHT22;11223;49.968;9.062;2022-08-27T06:23:04;20.70;99.90
22114;DHT22;11223;49.968;9.062;2022-08-27T06:25:30;20.60;99.90
22114;DHT22;11223;49.968;9.062;2022-08-27T06:27:57;20.60;99.90
22114;DHT22;11223;49.968;9.062;2022-08-27T06:30:23;20.60;99.90
22114;DHT22;11223;49.968;9.062;2022-08-27T06:32:49;20.60;99.90
22114;DHT22;11223;49.968;9.062;2022-08-27T06:35:16;20.60;99.90
22114;DHT22;11223;49.968;9.062;2022-08-27T06:37:42;20.60;99.90
22114;DHT22;11223;49.968;9.062;2022-08-27T06:40:08;20.70;99.90
22114;DHT22;11223;49.968;9.062;2022-08-27T06:42:35;20.70;99.90
22114;DHT22;11223;49.968;9.062;2022-08-27T06:45:01;20.60;99.90
22114;DHT22;11223;49.968;9.062;2022-08-27T06:47:29;20.70;99.90
22114;DHT22;11223;49.968;9.062;2022-08-27T06:49:55;20.70;99.90
22114;DHT22;11223;49.968;9.062;2022-08-27T06:52:22;20.80;99.90
22114;DHT22;11223;49.968;9.062;2022-08-27T06:54:47;20.90;99.90
22114;DHT22;11223;49.968;9.062;2022-08-27T06:57:15;20.90;99.90
22114;DHT22;11223;49.968;9.062;2022-08-27T06:59:40;21.00;99.90
22114;DHT22;11223;49.968;9.062;2022-08-27T07:02:06;21.10;99.90
22114;DHT22;11223;49.968;9.062;2022-08-27T07:04:32;21.20;99.90
22114;DHT22;11223;49.968;9.062;2022-08-27T07:06:59;21.30;99.90
22114;DHT22;11223;49.968;9.062;2022-08-27T07:09:25;21.40;99.90
22114;DHT22;11223;49.968;9.062;2022-08-27T07:11:50;21.50;99.90
22114;DHT22;11223;49.968;9.062;2022-08-27T07:14:16;21.60;99.90
22114;DHT22;11223;49.968;9.062;2022-08-27T07:16:41;21.70;99.90
22114;DHT22;11223;49.968;9.062;2022-08-27T07:19:07;21.80;99.90
22114;DHT22;11223;49.968;9.062;2022-08-27T07:21:34;21.90;99.90
22114;DHT22;11223;49.968;9.062;2022-08-27T07:24:01;22.00;99.90
22114;DHT22;11223;49.968;9.062;2022-08-27T07:26:35;22.10;99.90
22114;DHT22;11223;49.968;9.062;2022-08-27T07:29:03;22.20;99.90
22114;DHT22;11223;49.968;9.062;2022-08-27T07:31:30;22.40;99.90
22114;DHT22;11223;49.968;9.062;2022-08-27T07:33:56;22.40;99.90
22114;DHT22;11223;49.968;9.062;2022-08-27T07:36:22;22.50;99.90
22114;DHT22;11223;49.968;9.062;2022-08-27T07:38:50;22.60;99.90
22114;DHT22;11223;49.968;9.062;2022-08-27T07:41:17;22.70;99.90
22114;DHT22;11223;49.968;9.062;2022-08-27T07:43:42;22.80;99.90
22114;DHT22;11223;49.968;9.062;2022-08-27T07:46:26;22.80;99.90
22114;DHT22;11223;49.968;9.062;2022-08-27T07:48:52;22.90;99.90
22114;DHT22;11223;49.968;9.062;2022-08-27T07:51:20;22.90;99.90
22114;DHT22;11223;49.968;9.062;2022-08-27T07:53:46;22.90;99.90
22114;DHT22;11223;49.968;9.062;2022-08-27T07:56:13;22.90;99.90
22114;DHT22;11223;49.968;9.062;2022-08-27T07:58:39;22.90;99.90
22114;DHT22;11223;49.968;9.062;2022-08-27T08:01:05;22.90;99.90
22114;DHT22;11223;49.968;9.062;2022-08-27T08:03:31;22.90;99.90
22114;DHT22;11223;49.968;9.062;2022-08-27T08:06:06;22.90;99.90
22114;DHT22;11223;49.968;9.062;2022-08-27T08:08:34;22.90;99.90
22114;DHT22;11223;49.968;9.062;2022-08-27T08:11:00;22.90;99.90
22114;DHT22;11223;49.968;9.062;2022-08-27T08:13:29;23.00;99.90
22114;DHT22;11223;49.968;9.062;2022-08-27T08:15:56;23.00;99.90
22114;DHT22;11223;49.968;9.062;2022-08-27T08:18:22;23.10;99.90
22114;DHT22;11223;49.968;9.062;2022-08-27T08:20:47;23.10;99.90
22114;DHT22;11223;49.968;9.062;2022-08-27T08:23:13;23.10;99.90
22114;DHT22;11223;49.968;9.062;2022-08-27T08:25:40;23.10;99.90
22114;DHT22;11223;49.968;9.062;2022-08-27T08:28:06;23.10;99.90
22114;DHT22;11223;49.968;9.062;2022-08-27T08:30:31;23.10;99.90
22114;DHT22;11223;49.968;9.062;2022-08-27T08:32:57;23.10;99.90
22114;DHT22;11223;49.968;9.062;2022-08-27T08:35:23;23.00;99.90
22114;DHT22;11223;49.968;9.062;2022-08-27T08:37:49;23.00;99.90
22114;DHT22;11223;49.968;9.062;2022-08-27T08:40:32;22.90;99.90
22114;DHT22;11223;49.968;9.062;2022-08-27T08:42:59;22.90;99.90
22114;DHT22;11223;49.968;9.062;2022-08-27T08:45:31;22.80;99.90
22114;DHT22;11223;49.968;9.062;2022-08-27T08:48:05;22.80;99.90
22114;DHT22;11223;49.968;9.062;2022-08-27T08:53:37;22.80;99.90
22114;DHT22;11223;49.968;9.062;2022-08-27T08:56:11;22.90;99.90
22114;DHT22;11223;49.968;9.062;2022-08-27T08:58:48;23.00;99.90
22114;DHT22;11223;49.968;9.062;2022-08-27T09:01:18;23.10;99.90
22114;DHT22;11223;49.968;9.062;2022-08-27T09:03:57;23.20;99.90
22114;DHT22;11223;49.968;9.062;2022-08-27T09:06:32;23.30;99.90
22114;DHT22;11223;49.968;9.062;2022-08-27T09:09:19;23.60;99.90
22114;DHT22;11223;49.968;9.062;2022-08-27T09:11:53;23.80;99.90
22114;DHT22;11223;49.968;9.062;2022-08-27T09:14:48;23.90;99.90
22114;DHT22;11223;49.968;9.062;2022-08-27T09:17:15;24.00;99.90
22114;DHT22;11223;49.968;9.062;2022-08-27T09:19:41;24.00;99.90
22114;DHT22;11223;49.968;9.062;2022-08-27T09:27:19;24.20;99.90
22114;DHT22;11223;49.968;9.062;2022-08-27T09:29:51;24.40;99.90
22114;DHT22;11223;49.968;9.062;2022-08-27T09:32:23;24.60;99.90
22114;DHT22;11223;49.968;9.062;2022-08-27T09:34:49;24.80;99.90
22114;DHT22;11223;49.968;9.062;2022-08-27T09:37:18;25.00;99.90
22114;DHT22;11223;49.968;9.062;2022-08-27T09:40:00;25.10;99.90
22114;DHT22;11223;49.968;9.062;2022-08-27T09:42:42;25.10;99.90
22114;DHT22;11223;49.968;9.062;2022-08-27T09:45:16;25.00;99.90
22114;DHT22;11223;49.968;9.062;2022-08-27T09:47:50;25.00;99.90
22114;DHT22;11223;49.968;9.062;2022-08-27T09:50:19;24.90;99.90
22114;DHT22;11223;49.968;9.062;2022-08-27T09:52:52;24.80;99.90
22114;DHT22;11223;49.968;9.062;2022-08-27T09:55:46;24.70;99.90
22114;DHT22;11223;49.968;9.062;2022-08-27T09:58:22;24.70;99.90
22114;DHT22;11223;49.968;9.062;2022-08-27T10:00:56;24.60;99.90
22114;DHT22;11223;49.968;9.062;2022-08-27T10:03:22;24.50;99.90
22114;DHT22;11223;49.968;9.062;2022-08-27T10:05:49;24.50;99.90
22114;DHT22;11223;49.968;9.062;2022-08-27T10:08:37;24.40;99.90
22114;DHT22;11223;49.968;9.062;2022-08-27T10:11:21;24.30;99.90
22114;DHT22;11223;49.968;9.062;2022-08-27T10:14:08;24.30;99.90
22114;DHT22;11223;49.968;9.062;2022-08-27T10:22:44;24.00;99.90
22114;DHT22;11223;49.968;9.062;2022-08-27T10:35:57;23.90;99.90
22114;DHT22;11223;49.968;9.062;2022-08-27T10:38:38;24.10;99.90
22114;DHT22;11223;49.968;9.062;2022-08-27T10:41:25;24.20;99.90
22114;DHT22;11223;49.968;9.062;2022-08-27T10:44:06;24.40;99.90
22114;DHT22;11223;49.968;9.062;2022-08-27T10:49:34;24.70;99.90
22114;DHT22;11223;49.968;9.062;2022-08-27T10:52:11;24.80;99.90
22114;DHT22;11223;49.968;9.062;2022-08-27T10:54:42;24.90;99.90
22114;DHT22;11223;49.968;9.062;2022-08-27T11:00:08;25.00;99.90
22114;DHT22;11223;49.968;9.062;2022-08-27T11:02:53;25.10;99.90
22114;DHT22;11223;49.968;9.062;2022-08-27T11:05:46;25.10;99.90
22114;DHT22;11223;49.968;9.062;2022-08-27T11:10:57;25.10;99.90
22114;DHT22;11223;49.968;9.062;2022-08-27T11:13:34;25.10;99.90
22114;DHT22;11223;49.968;9.062;2022-08-27T11:16:12;25.20;99.90
22114;DHT22;11223;49.968;9.062;2022-08-27T11:18:43;25.20;99.90
22114;DHT22;11223;49.968;9.062;2022-08-27T11:23:44;25.40;99.90
22114;DHT22;11223;49.968;9.062;2022-08-27T11:26:11;25.50;99.90
22114;DHT22;11223;49.968;9.062;2022-08-27T11:28:43;25.60;99.90
22114;DHT22;11223;49.968;9.062;2022-08-27T11:37:20;26.00;99.90
22114;DHT22;11223;49.968;9.062;2022-08-27T11:43:11;26.00;99.90
22114;DHT22;11223;49.968;9.062;2022-08-27T11:45:49;26.10;99.90
22114;DHT22;11223;49.968;9.062;2022-08-27T11:53:31;26.40;99.90
22114;DHT22;11223;49.968;9.062;2022-08-27T11:55:57;26.40;99.90
22114;DHT22;11223;49.968;9.062;2022-08-27T11:58:33;26.50;99.90
22114;DHT22;11223;49.968;9.062;2022-08-27T12:00:59;26.40;99.90
22114;DHT22;11223;49.968;9.062;2022-08-27T12:03:32;26.40;99.90
22114;DHT22;11223;49.968;9.062;2022-08-27T12:06:08;26.30;99.90
22114;DHT22;11223;49.968;9.062;2022-08-27T12:08:35;26.10;99.90
22114;DHT22;11223;49.968;9.062;2022-08-27T12:11:29;26.00;99.90
22114;DHT22;11223;49.968;9.062;2022-08-27T12:14:11;25.90;99.90
22114;DHT22;11223;49.968;9.062;2022-08-27T12:16:52;25.70;99.90
22114;DHT22;11223;49.968;9.062;2022-08-27T12:24:46;25.30;99.90
22114;DHT22;11223;49.968;9.062;2022-08-27T12:35:15;25.20;99.90
22114;DHT22;11223;49.968;9.062;2022-08-27T12:40:41;25.20;99.90
22114;DHT22;11223;49.968;9.062;2022-08-27T12:43:13;25.10;99.90
22114;DHT22;11223;49.968;9.062;2022-08-27T12:45:46;25.10;99.90
22114;DHT22;11223;49.968;9.062;2022-08-27T12:48:15;25.10;99.90
22114;DHT22;11223;49.968;9.062;2022-08-27T12:50:41;25.10;99.90
22114;DHT22;11223;49.968;9.062;2022-08-27T12:56:11;25.20;99.90
22114;DHT22;11223;49.968;9.062;2022-08-27T13:04:27;25.30;99.90
22114;DHT22;11223;49.968;9.062;2022-08-27T13:06:53;25.30;99.90
22114;DHT22;11223;49.968;9.062;2022-08-27T13:09:32;25.40;99.90
22114;DHT22;11223;49.968;9.062;2022-08-27T13:11:59;25.50;99.90
22114;DHT22;11223;49.968;9.062;2022-08-27T13:14:27;25.40;99.90
22114;DHT22;11223;49.968;9.062;2022-08-27T13:17:06;25.40;99.90
22114;DHT22;11223;49.968;9.062;2022-08-27T13:19:42;25.40;99.90
22114;DHT22;11223;49.968;9.062;2022-08-27T13:22:08;25.40;99.90
22114;DHT22;11223;49.968;9.062;2022-08-27T13:24:45;25.30;99.90
22114;DHT22;11223;49.968;9.062;2022-08-27T13:27:12;25.40;99.90
22114;DHT22;11223;49.968;9.062;2022-08-27T13:29:39;25.40;99.90
22114;DHT22;11223;49.968;9.062;2022-08-27T13:32:05;25.50;99.90
22114;DHT22;11223;49.968;9.062;2022-08-27T13:34:37;25.60;99.90
22114;DHT22;11223;49.968;9.062;2022-08-27T13:37:06;25.70;99.90
22114;DHT22;11223;49.968;9.062;2022-08-27T13:39:35;25.80;99.90
22114;DHT22;11223;49.968;9.062;2022-08-27T13:42:02;25.90;99.90
22114;DHT22;11223;49.968;9.062;2022-08-27T13:44:37;26.00;99.90
22114;DHT22;11223;49.968;9.062;2022-08-27T13:47:05;26.10;99.90
22114;DHT22;11223;49.968;9.062;2022-08-27T13:49:34;26.20;99.90
22114;DHT22;11223;49.968;9.062;2022-08-27T13:52:22;26.30;99.90
22114;DHT22;11223;49.968;9.062;2022-08-27T13:54:58;26.50;99.90
22114;DHT22;11223;49.968;9.062;2022-08-27T13:57:29;26.80;99.90
22114;DHT22;11223;49.968;9.062;2022-08-27T14:00:13;27.20;99.90
22114;DHT22;11223;49.968;9.062;2022-08-27T14:02:40;27.50;99.90
22114;DHT22;11223;49.968;9.062;2022-08-27T14:05:08;27.70;99.90
22114;DHT22;11223;49.968;9.062;2022-08-27T14:07:45;27.60;99.90
22114;DHT22;11223;49.968;9.062;2022-08-27T14:12:53;27.20;99.90
22114;DHT22;11223;49.968;9.062;2022-08-27T14:15:27;27.20;99.90
22114;DHT22;11223;49.968;9.062;2022-08-27T14:17:53;27.10;99.90
22114;DHT22;11223;49.968;9.062;2022-08-27T14:20:19;26.90;99.90
22114;DHT22;11223;49.968;9.062;2022-08-27T14:22:45;26.80;99.90
22114;DHT22;11223;49.968;9.062;2022-08-27T14:25:12;26.70;99.90
22114;DHT22;11223;49.968;9.062;2022-08-27T14:27:39;26.60;99.90
22114;DHT22;11223;49.968;9.062;2022-08-27T14:30:07;26.50;99.90
22114;DHT22;11223;49.968;9.062;2022-08-27T14:32:34;26.30;99.90
22114;DHT22;11223;49.968;9.062;2022-08-27T14:35:01;26.30;99.90
22114;DHT22;11223;49.968;9.062;2022-08-27T14:37:26;26.20;99.90
22114;DHT22;11223;49.968;9.062;2022-08-27T14:39:52;26.10;99.90
22114;DHT22;11223;49.968;9.062;2022-08-27T14:42:18;26.10;99.90
22114;DHT22;11223;49.968;9.062;2022-08-27T14:44:44;26.10;99.90
22114;DHT22;11223;49.968;9.062;2022-08-27T14:47:10;26.10;99.90
22114;DHT22;11223;49.968;9.062;2022-08-27T14:49:39;26.00;99.90
22114;DHT22;11223;49.968;9.062;2022-08-27T14:52:07;26.10;99.90
22114;DHT22;11223;49.968;9.062;2022-08-27T14:54:33;26.00;99.90
22114;DHT22;11223;49.968;9.062;2022-08-27T14:56:59;26.00;99.90
22114;DHT22;11223;49.968;9.062;2022-08-27T14:59:26;25.90;99.90
22114;DHT22;11223;49.968;9.062;2022-08-27T15:01:52;25.90;99.90
22114;DHT22;11223;49.968;9.062;2022-08-27T15:04:19;25.90;99.90
22114;DHT22;11223;49.968;9.062;2022-08-27T15:06:45;25.90;99.90
22114;DHT22;11223;49.968;9.062;2022-08-27T15:09:10;25.80;99.90
22114;DHT22;11223;49.968;9.062;2022-08-27T15:11:36;25.80;99.90
22114;DHT22;11223;49.968;9.062;2022-08-27T15:14:09;25.70;99.90
22114;DHT22;11223;49.968;9.062;2022-08-27T15:16:39;25.70;99.90
22114;DHT22;11223;49.968;9.062;2022-08-27T15:19:07;25.70;99.90
22114;DHT22;11223;49.968;9.062;2022-08-27T15:21:35;25.70;99.90
22114;DHT22;11223;49.968;9.062;2022-08-27T15:24:04;25.60;99.90
22114;DHT22;11223;49.968;9.062;2022-08-27T15:26:31;25.50;99.90
22114;DHT22;11223;49.968;9.062;2022-08-27T15:28:57;25.40;99.90
22114;DHT22;11223;49.968;9.062;2022-08-27T15:31:23;25.30;99.90
22114;DHT22;11223;49.968;9.062;2022-08-27T15:33:49;25.30;99.90
22114;DHT22;11223;49.968;9.062;2022-08-27T15:36:14;25.30;99.90
22114;DHT22;11223;49.968;9.062;2022-08-27T15:38:40;25.30;99.90
22114;DHT22;11223;49.968;9.062;2022-08-27T15:41:06;25.30;99.90
22114;DHT22;11223;49.968;9.062;2022-08-27T15:43:32;25.30;99.90
22114;DHT22;11223;49.968;9.062;2022-08-27T15:45:58;25.30;99.90
22114;DHT22;11223;49.968;9.062;2022-08-27T15:48:24;25.40;99.90
22114;DHT22;11223;49.968;9.062;2022-08-27T15:50:50;25.40;99.90
22114;DHT22;11223;49.968;9.062;2022-08-27T15:53:16;25.30;99.90
22114;DHT22;11223;49.968;9.062;2022-08-27T15:55:45;25.40;99.90
22114;DHT22;11223;49.968;9.062;2022-08-27T15:58:11;25.40;99.90
22114;DHT22;11223;49.968;9.062;2022-08-27T16:00:37;25.40;99.90
22114;DHT22;11223;49.968;9.062;2022-08-27T16:03:08;25.30;99.90
22114;DHT22;11223;49.968;9.062;2022-08-27T16:05:35;25.30;99.90
22114;DHT22;11223;49.968;9.062;2022-08-27T16:08:02;25.20;99.90
22114;DHT22;11223;49.968;9.062;2022-08-27T16:10:27;25.10;99.90
22114;DHT22;11223;49.968;9.062;2022-08-27T16:12:53;25.10;99.90
22114;DHT22;11223;49.968;9.062;2022-08-27T16:15:19;25.00;99.90
22114;DHT22;11223;49.968;9.062;2022-08-27T16:17:44;24.90;99.90
22114;DHT22;11223;49.968;9.062;2022-08-27T16:20:13;24.80;99.90
22114;DHT22;11223;49.968;9.062;2022-08-27T16:22:39;24.80;99.90
22114;DHT22;11223;49.968;9.062;2022-08-27T16:25:07;24.70;99.90
22114;DHT22;11223;49.968;9.062;2022-08-27T16:27:33;24.50;99.90
22114;DHT22;11223;49.968;9.062;2022-08-27T16:29:59;24.50;99.90
22114;DHT22;11223;49.968;9.062;2022-08-27T16:32:25;24.40;99.90
22114;DHT22;11223;49.968;9.062;2022-08-27T16:34:53;24.40;99.90
22114;DHT22;11223;49.968;9.062;2022-08-27T16:37:19;24.50;99.90
22114;DHT22;11223;49.968;9.062;2022-08-27T16:39:44;24.50;99.90
22114;DHT22;11223;49.968;9.062;2022-08-27T16:42:10;24.50;99.90
22114;DHT22;11223;49.968;9.062;2022-08-27T16:44:37;24.50;99.90
22114;DHT22;11223;49.968;9.062;2022-08-27T16:47:03;24.60;99.90
22114;DHT22;11223;49.968;9.062;2022-08-27T16:49:29;24.50;99.90
22114;DHT22;11223;49.968;9.062;2022-08-27T16:52:13;24.50;99.90
22114;DHT22;11223;49.968;9.062;2022-08-27T16:54:39;24.40;99.90
22114;DHT22;11223;49.968;9.062;2022-08-27T16:57:05;24.40;99.90
22114;DHT22;11223;49.968;9.062;2022-08-27T16:59:30;24.30;99.90
22114;DHT22;11223;49.968;9.062;2022-08-27T17:01:56;24.20;99.90